sensor_id;sensor_type;location;lat;lon;timestamp;temperature;humidity
10051;DHT22;5065;46.942;7.432;2022-09-29T00:01:23;11.60;99.90
10051;DHT22;5065;46.942;7.432;2022-09-29T00:03:50;11.60;99.90
10051;DHT22;5065;46.942;7.432;2022-09-29T00:06:18;11.70;99.90
10051;DHT22;5065;46.942;7.432;2022-09-29T00:08:46;11.70;99.90
10051;DHT22;5065;46.942;7.432;2022-09-29T00:11:15;11.80;99.90
10051;DHT22;5065;46.942;7.432;2022-09-29T00:13:43;11.80;99.90
10051;DHT22;5065;46.942;7.432;2022-09-29T00:16:11;11.70;99.90
10051;DHT22;5065;46.942;7.432;2022-09-29T00:18:39;11.80;99.90
10051;DHT22;5065;46.942;7.432;2022-09-29T00:21:08;11.80;99.90
10051;DHT22;5065;46.942;7.432;2022-09-29T00:23:36;11.80;99.90
10051;DHT22;5065;46.942;7.432;2022-09-29T00:26:06;11.80;99.90
10051;DHT22;5065;46.942;7.432;2022-09-29T00:28:35;11.80;99.90
10051;DHT22;5065;46.942;7.432;2022-09-29T00:31:03;11.80;99.90
10051;DHT22;5065;46.942;7.432;2022-09-29T00:33:32;11.80;99.90
10051;DHT22;5065;46.942;7.432;2022-09-29T00:36:01;11.80;99.90
10051;DHT22;5065;46.942;7.432;2022-09-29T00:38:30;11.80;99.90
10051;DHT22;5065;46.942;7.432;2022-09-29T00:40:58;11.80;99.90
10051;DHT22;5065;46.942;7.432;2022-09-29T00:43:50;11.80;99.90
10051;DHT22;5065;46.942;7.432;2022-09-29T00:46:23;11.70;99.90
10051;DHT22;5065;46.942;7.432;2022-09-29T00:48:53;11.80;99.90
10051;DHT22;5065;46.942;7.432;2022-09-29T00:51:21;11.80;99.90
10051;DHT22;5065;46.942;7.432;2022-09-29T00:53:49;11.80;99.90
10051;DHT22;5065;46.942;7.432;2022-09-29T00:56:17;11.80;99.90
10051;DHT22;5065;46.942;7.432;2022-09-29T00:58:52;11.80;99.90
10051;DHT22;5065;46.942;7.432;2022-09-29T01:01:21;11.80;99.90
10051;DHT22;5065;46.942;7.432;2022-09-29T01:03:50;11.80;99.90
10051;DHT22;5065;46.942;7.432;2022-09-29T01:06:21;11.80;99.90
10051;DHT22;5065;46.942;7.432;2022-09-29T01:08:53;11.90;99.90
10051;DHT22;5065;46.942;7.432;2022-09-29T01:11:23;11.90;99.90
10051;DHT22;5065;46.942;7.432;2022-09-29T01:13:53;11.80;99.90
10051;DHT22;5065;46.942;7.432;2022-09-29T01:16:21;11.80;99.90
10051;DHT22;5065;46.942;7.432;2022-09-29T01:18:49;11.80;99.90
10051;DHT22;5065;46.942;7.432;2022-09-29T01:21:22;11.80;99.90
10051;DHT22;5065;46.942;7.432;2022-09-29T01:24:13;11.80;99.90
10051;DHT22;5065;46.942;7.432;2022-09-29T01:27:04;11.80;99.90
10051;DHT22;5065;46.942;7.432;2022-09-29T01:33:08;11.80;99.90
10051;DHT22;5065;46.942;7.432;2022-09-29T01:35:46;11.70;99.90
10051;DHT22;5065;46.942;7.432;2022-09-29T01:38:30;11.70;99.90
10051;DHT22;5065;46.942;7.432;2022-09-29T01:41:04;11.80;99.90
10051;DHT22;5065;46.942;7.432;2022-09-29T01:43:37;11.80;99.90
10051;DHT22;5065;46.942;7.432;2022-09-29T01:46:10;11.80;99.90
10051;DHT22;5065;46.942;7.432;2022-09-29T01:48:44;11.80;99.90
10051;DHT22;5065;46.942;7.432;2022-09-29T01:51:16;11.80;99.90
10051;DHT22;5065;46.942;7.432;2022-09-29T01:53:47;11.80;99.90
10051;DHT22;5065;46.942;7.432;2022-09-29T01:56:20;11.80;99.90
10051;DHT22;5065;46.942;7.432;2022-09-29T01:58:51;11.70;99.90
10051;DHT22;5065;46.942;7.432;2022-09-29T02:01:22;11.80;99.90
10051;DHT22;5065;46.942;7.432;2022-09-29T02:03:54;11.80;99.90
10051;DHT22;5065;46.942;7.432;2022-09-29T02:06:25;11.80;99.90
10051;DHT22;5065;46.942;7.432;2022-09-29T02:08:55;11.80;99.90
10051;DHT22;5065;46.942;7.432;2022-09-29T02:11:22;11.80;99.90
10051;DHT22;5065;46.942;7.432;2022-09-29T02:13:52;11.80;99.90
10051;DHT22;5065;46.942;7.432;2022-09-29T02:16:24;11.80;99.90
10051;DHT22;5065;46.942;7.432;2022-09-29T02:18:55;11.70;99.90
10051;DHT22;5065;46.942;7.432;2022-09-29T02:21:24;11.70;99.90
10051;DHT22;5065;46.942;7.432;2022-09-29T02:23:53;11.70;99.90
10051;DHT22;5065;46.942;7.432;2022-09-29T02:26:23;11.70;99.90
10051;DHT22;5065;46.942;7.432;2022-09-29T02:28:52;11.70;99.90
10051;DHT22;5065;46.942;7.432;2022-09-29T02:31:20;11.70;99.90
10051;DHT22;5065;46.942;7.432;2022-09-29T02:33:47;11.70;99.90
10051;DHT22;5065;46.942;7.432;2022-09-29T02:36:22;11.70;99.90
10051;DHT22;5065;46.942;7.432;2022-09-29T02:38:54;11.70;99.90
10051;DHT22;5065;46.942;7.432;2022-09-29T02:41:36;11.70;99.90
10051;DHT22;5065;46.942;7.432;2022-09-29T02:44:24;11.80;99.90
10051;DHT22;5065;46.942;7.432;2022-09-29T02:49:58;11.80;99.90
10051;DHT22;5065;46.942;7.432;2022-09-29T02:52:41;11.70;99.90
10051;DHT22;5065;46.942;7.432;2022-09-29T02:55:16;11.80;99.90
10051;DHT22;5065;46.942;7.432;2022-09-29T02:57:49;11.70;99.90
10051;DHT22;5065;46.942;7.432;2022-09-29T03:00:17;11.70;99.90
10051;DHT22;5065;46.942;7.432;2022-09-29T03:02:45;11.60;99.90
10051;DHT22;5065;46.942;7.432;2022-09-29T03:05:15;11.60;99.90
10051;DHT22;5065;46.942;7.432;2022-09-29T03:07:44;11.70;99.90
10051;DHT22;5065;46.942;7.432;2022-09-29T03:10:12;11.70;99.90
10051;DHT22;5065;46.942;7.432;2022-09-29T03:12:40;11.70;99.90
10051;DHT22;5065;46.942;7.432;2022-09-29T03:15:08;11.70;99.90
10051;DHT22;5065;46.942;7.432;2022-09-29T03:17:37;11.70;99.90
10051;DHT22;5065;46.942;7.432;2022-09-29T03:20:05;11.80;99.90
10051;DHT22;5065;46.942;7.432;2022-09-29T03:22:33;11.70;99.90
10051;DHT22;5065;46.942;7.432;2022-09-29T03:25:02;11.70;99.90
10051;DHT22;5065;46.942;7.432;2022-09-29T03:27:30;11.70;99.90
10051;DHT22;5065;46.942;7.432;2022-09-29T03:29:58;11.60;99.90
10051;DHT22;5065;46.942;7.432;2022-09-29T03:32:25;11.70;99.90
10051;DHT22;5065;46.942;7.432;2022-09-29T03:34:52;11.70;99.90
10051;DHT22;5065;46.942;7.432;2022-09-29T03:37:19;11.70;99.90
10051;DHT22;5065;46.942;7.432;2022-09-29T03:39:46;11.70;99.90
10051;DHT22;5065;46.942;7.432;2022-09-29T03:42:14;11.80;99.90
10051;DHT22;5065;46.942;7.432;2022-09-29T03:44:42;11.80;99.90
10051;DHT22;5065;46.942;7.432;2022-09-29T03:47:09;11.70;99.90
10051;DHT22;5065;46.942;7.432;2022-09-29T03:49:36;11.80;99.90
10051;DHT22;5065;46.942;7.432;2022-09-29T03:52:03;11.70;99.90
10051;DHT22;5065;46.942;7.432;2022-09-29T03:54:31;11.70;99.90
10051;DHT22;5065;46.942;7.432;2022-09-29T03:56:58;11.80;99.90
10051;DHT22;5065;46.942;7.432;2022-09-29T03:59:27;11.70;99.90
10051;DHT22;5065;46.942;7.432;2022-09-29T04:01:54;11.70;99.90
10051;DHT22;5065;46.942;7.432;2022-09-29T04:04:21;11.70;99.90
10051;DHT22;5065;46.942;7.432;2022-09-29T04:06:48;11.70;99.90
10051;DHT22;5065;46.942;7.432;2022-09-29T04:09:15;11.70;99.90
10051;DHT22;5065;46.942;7.432;2022-09-29T04:11:43;11.70;99.90
10051;DHT22;5065;46.942;7.432;2022-09-29T04:14:10;11.70;99.90
10051;DHT22;5065;46.942;7.432;2022-09-29T04:16:38;11.70;99.90
10051;DHT22;5065;46.942;7.432;2022-09-29T04:19:05;11.70;99.90
10051;DHT22;5065;46.942;7.432;2022-09-29T04:21:33;11.70;99.90
10051;DHT22;5065;46.942;7.432;2022-09-29T04:24:00;11.70;99.90
10051;DHT22;5065;46.942;7.432;2022-09-29T04:26:27;11.70;99.90
10051;DHT22;5065;46.942;7.432;2022-09-29T04:28:55;11.60;99.90
10051;DHT22;5065;46.942;7.432;2022-09-29T04:31:22;11.70;99.90
10051;DHT22;5065;46.942;7.432;2022-09-29T04:33:50;11.70;99.90
10051;DHT22;5065;46.942;7.432;2022-09-29T04:36:18;11.70;99.90
10051;DHT22;5065;46.942;7.432;2022-09-29T04:38:45;11.70;99.90
10051;DHT22;5065;46.942;7.432;2022-09-29T04:41:13;11.60;99.90
10051;DHT22;5065;46.942;7.432;2022-09-29T04:43:40;11.70;99.90
10051;DHT22;5065;46.942;7.432;2022-09-29T04:46:07;11.70;99.90
10051;DHT22;5065;46.942;7.432;2022-09-29T04:48:35;11.70;99.90
10051;DHT22;5065;46.942;7.432;2022-09-29T04:51:04;11.60;99.90
10051;DHT22;5065;46.942;7.432;2022-09-29T04:53:32;11.50;99.90
10051;DHT22;5065;46.942;7.432;2022-09-29T04:56:04;11.50;99.90
10051;DHT22;5065;46.942;7.432;2022-09-29T04:58:32;11.50;99.90
10051;DHT22;5065;46.942;7.432;2022-09-29T05:01:04;11.50;99.90
10051;DHT22;5065;46.942;7.432;2022-09-29T05:03:32;11.50;99.90
10051;DHT22;5065;46.942;7.432;2022-09-29T05:05:59;11.60;99.90
10051;DHT22;5065;46.942;7.432;2022-09-29T05:08:27;11.50;99.90
10051;DHT22;5065;46.942;7.432;2022-09-29T05:10:54;11.50;99.90
10051;DHT22;5065;46.942;7.432;2022-09-29T05:13:22;11.50;99.90
10051;DHT22;5065;46.942;7.432;2022-09-29T05:15:52;11.70;99.90
10051;DHT22;5065;46.942;7.432;2022-09-29T05:18:20;11.60;99.90
10051;DHT22;5065;46.942;7.432;2022-09-29T05:20:47;11.70;99.90
10051;DHT22;5065;46.942;7.432;2022-09-29T05:23:15;11.60;99.90
10051;DHT22;5065;46.942;7.432;2022-09-29T05:25:43;11.60;99.90
10051;DHT22;5065;46.942;7.432;2022-09-29T05:28:11;11.60;99.90
10051;DHT22;5065;46.942;7.432;2022-09-29T05:30:40;11.60;99.90
10051;DHT22;5065;46.942;7.432;2022-09-29T05:33:07;11.60;99.90
10051;DHT22;5065;46.942;7.432;2022-09-29T05:35:34;11.60;99.90
10051;DHT22;5065;46.942;7.432;2022-09-29T05:38:02;11.60;99.90
10051;DHT22;5065;46.942;7.432;2022-09-29T05:40:29;11.70;99.90
10051;DHT22;5065;46.942;7.432;2022-09-29T05:42:58;11.60;99.90
10051;DHT22;5065;46.942;7.432;2022-09-29T05:45:26;11.70;99.90
10051;DHT22;5065;46.942;7.432;2022-09-29T05:47:53;11.60;99.90
10051;DHT22;5065;46.942;7.432;2022-09-29T05:50:20;11.70;99.90
10051;DHT22;5065;46.942;7.432;2022-09-29T05:52:48;11.70;99.90
10051;DHT22;5065;46.942;7.432;2022-09-29T05:55:17;11.80;99.90
10051;DHT22;5065;46.942;7.432;2022-09-29T05:57:47;11.70;99.90
10051;DHT22;5065;46.942;7.432;2022-09-29T06:00:16;11.60;99.90
10051;DHT22;5065;46.942;7.432;2022-09-29T06:02:43;11.70;99.90
10051;DHT22;5065;46.942;7.432;2022-09-29T06:05:10;11.70;99.90
10051;DHT22;5065;46.942;7.432;2022-09-29T06:07:38;11.70;99.90
10051;DHT22;5065;46.942;7.432;2022-09-29T06:10:06;11.70;99.90
10051;DHT22;5065;46.942;7.432;2022-09-29T06:12:34;11.60;99.90
10051;DHT22;5065;46.942;7.432;2022-09-29T06:15:02;11.50;99.90
10051;DHT22;5065;46.942;7.432;2022-09-29T06:17:32;11.60;99.90
10051;DHT22;5065;46.942;7.432;2022-09-29T06:20:00;11.40;99.90
10051;DHT22;5065;46.942;7.432;2022-09-29T06:22:27;11.40;99.90
10051;DHT22;5065;46.942;7.432;2022-09-29T06:24:54;11.40;99.90
10051;DHT22;5065;46.942;7.432;2022-09-29T06:27:22;11.40;99.90
10051;DHT22;5065;46.942;7.432;2022-09-29T06:29:49;11.30;99.90
10051;DHT22;5065;46.942;7.432;2022-09-29T06:32:16;11.30;99.90
10051;DHT22;5065;46.942;7.432;2022-09-29T06:34:44;11.40;99.90
10051;DHT22;5065;46.942;7.432;2022-09-29T06:37:29;11.10;99.90
10051;DHT22;5065;46.942;7.432;2022-09-29T06:40:06;11.30;99.90
10051;DHT22;5065;46.942;7.432;2022-09-29T06:42:34;11.30;99.90
10051;DHT22;5065;46.942;7.432;2022-09-29T06:45:01;11.40;99.90
10051;DHT22;5065;46.942;7.432;2022-09-29T06:47:28;11.40;99.90
10051;DHT22;5065;46.942;7.432;2022-09-29T06:49:57;11.50;99.90
10051;DHT22;5065;46.942;7.432;2022-09-29T06:52:26;11.50;99.90
10051;DHT22;5065;46.942;7.432;2022-09-29T06:54:53;11.60;99.90
10051;DHT22;5065;46.942;7.432;2022-09-29T06:57:20;11.60;99.90
10051;DHT22;5065;46.942;7.432;2022-09-29T06:59:48;11.60;99.90
10051;DHT22;5065;46.942;7.432;2022-09-29T07:02:15;11.70;99.90
10051;DHT22;5065;46.942;7.432;2022-09-29T07:04:42;11.60;99.90
10051;DHT22;5065;46.942;7.432;2022-09-29T07:07:10;11.60;99.90
10051;DHT22;5065;46.942;7.432;2022-09-29T07:09:37;11.60;99.90
10051;DHT22;5065;46.942;7.432;2022-09-29T07:12:04;11.60;99.90
10051;DHT22;5065;46.942;7.432;2022-09-29T07:14:32;11.70;99.90
10051;DHT22;5065;46.942;7.432;2022-09-29T07:16:59;11.70;99.90
10051;DHT22;5065;46.942;7.432;2022-09-29T07:19:27;11.60;99.90
10051;DHT22;5065;46.942;7.432;2022-09-29T07:21:54;11.60;99.90
10051;DHT22;5065;46.942;7.432;2022-09-29T07:24:22;11.70;99.90
10051;DHT22;5065;46.942;7.432;2022-09-29T07:26:51;11.70;99.90
10051;DHT22;5065;46.942;7.432;2022-09-29T07:29:18;11.70;99.90
10051;DHT22;5065;46.942;7.432;2022-09-29T07:31:45;11.80;99.90
10051;DHT22;5065;46.942;7.432;2022-09-29T07:34:13;11.80;99.90
10051;DHT22;5065;46.942;7.432;2022-09-29T07:36:40;11.80;99.90
10051;DHT22;5065;46.942;7.432;2022-09-29T07:39:07;11.80;99.90
10051;DHT22;5065;46.942;7.432;2022-09-29T07:41:36;11.70;99.90
10051;DHT22;5065;46.942;7.432;2022-09-29T07:44:03;11.80;99.90
10051;DHT22;5065;46.942;7.432;2022-09-29T07:46:30;11.80;99.90
10051;DHT22;5065;46.942;7.432;2022-09-29T07:48:58;11.80;99.90
10051;DHT22;5065;46.942;7.432;2022-09-29T07:51:25;11.80;99.90
10051;DHT22;5065;46.942;7.432;2022-09-29T07:53:52;11.80;99.90
10051;DHT22;5065;46.942;7.432;2022-09-29T07:56:21;11.80;99.90
10051;DHT22;5065;46.942;7.432;2022-09-29T07:58:50;11.80;99.90
10051;DHT22;5065;46.942;7.432;2022-09-29T08:01:18;11.80;99.90
10051;DHT22;5065;46.942;7.432;2022-09-29T08:03:49;11.90;99.90
10051;DHT22;5065;46.942;7.432;2022-09-29T08:06:16;11.80;99.90
10051;DHT22;5065;46.942;7.432;2022-09-29T08:08:43;11.80;99.90
10051;DHT22;5065;46.942;7.432;2022-09-29T08:11:12;11.70;99.90
10051;DHT22;5065;46.942;7.432;2022-09-29T08:13:40;11.80;99.90
10051;DHT22;5065;46.942;7.432;2022-09-29T08:16:11;11.80;99.90
10051;DHT22;5065;46.942;7.432;2022-09-29T08:18:39;11.80;99.90
10051;DHT22;5065;46.942;7.432;2022-09-29T08:21:07;11.80;99.90
10051;DHT22;5065;46.942;7.432;2022-09-29T08:23:35;11.90;99.90
10051;DHT22;5065;46.942;7.432;2022-09-29T08:26:04;11.90;99.90
10051;DHT22;5065;46.942;7.432;2022-09-29T08:28:33;11.90;99.90
10051;DHT22;5065;46.942;7.432;2022-09-29T08:31:01;11.90;99.90
10051;DHT22;5065;46.942;7.432;2022-09-29T08:33:30;11.90;99.90
10051;DHT22;5065;46.942;7.432;2022-09-29T08:35:58;11.90;99.90
10051;DHT22;5065;46.942;7.432;2022-09-29T08:38:26;11.90;99.90
10051;DHT22;5065;46.942;7.432;2022-09-29T08:40:54;11.90;99.90
10051;DHT22;5065;46.942;7.432;2022-09-29T08:43:25;12.00;99.90
10051;DHT22;5065;46.942;7.432;2022-09-29T08:45:59;12.00;99.90
10051;DHT22;5065;46.942;7.432;2022-09-29T08:48:32;12.00;99.90
10051;DHT22;5065;46.942;7.432;2022-09-29T08:51:02;12.00;99.90
10051;DHT22;5065;46.942;7.432;2022-09-29T08:53:33;12.00;99.90
10051;DHT22;5065;46.942;7.432;2022-09-29T08:56:04;12.00;99.90
10051;DHT22;5065;46.942;7.432;2022-09-29T08:58:31;12.00;99.90
10051;DHT22;5065;46.942;7.432;2022-09-29T09:01:09;12.00;99.90
10051;DHT22;5065;46.942;7.432;2022-09-29T09:03:55;12.00;99.90
10051;DHT22;5065;46.942;7.432;2022-09-29T09:06:35;12.00;99.90
10051;DHT22;5065;46.942;7.432;2022-09-29T09:09:17;12.00;99.90
10051;DHT22;5065;46.942;7.432;2022-09-29T09:12:14;12.00;99.90
10051;DHT22;5065;46.942;7.432;2022-09-29T09:15:07;12.10;99.90
10051;DHT22;5065;46.942;7.432;2022-09-29T09:17:55;12.10;99.90
10051;DHT22;5065;46.942;7.432;2022-09-29T09:20:31;12.10;99.90
10051;DHT22;5065;46.942;7.432;2022-09-29T09:23:00;12.20;99.90
10051;DHT22;5065;46.942;7.432;2022-09-29T09:25:34;12.10;99.90
10051;DHT22;5065;46.942;7.432;2022-09-29T09:28:10;12.20;99.90
10051;DHT22;5065;46.942;7.432;2022-09-29T09:30:42;12.20;99.90
10051;DHT22;5065;46.942;7.432;2022-09-29T09:33:19;12.20;99.90
10051;DHT22;5065;46.942;7.432;2022-09-29T09:35:51;12.20;99.90
10051;DHT22;5065;46.942;7.432;2022-09-29T09:38:22;12.30;99.90
10051;DHT22;5065;46.942;7.432;2022-09-29T09:40:53;12.30;99.90
10051;DHT22;5065;46.942;7.432;2022-09-29T09:43:25;12.40;99.90
10051;DHT22;5065;46.942;7.432;2022-09-29T09:45:56;12.40;99.90
10051;DHT22;5065;46.942;7.432;2022-09-29T09:48:31;12.50;99.90
10051;DHT22;5065;46.942;7.432;2022-09-29T09:51:17;12.60;99.90
10051;DHT22;5065;46.942;7.432;2022-09-29T09:53:48;12.60;99.90
10051;DHT22;5065;46.942;7.432;2022-09-29T09:56:25;12.70;99.90
10051;DHT22;5065;46.942;7.432;2022-09-29T09:59:07;12.80;99.90
10051;DHT22;5065;46.942;7.432;2022-09-29T10:01:40;12.90;99.90
10051;DHT22;5065;46.942;7.432;2022-09-29T10:04:09;12.90;99.90
10051;DHT22;5065;46.942;7.432;2022-09-29T10:06:39;13.00;99.90
10051;DHT22;5065;46.942;7.432;2022-09-29T10:09:10;13.10;99.90
10051;DHT22;5065;46.942;7.432;2022-09-29T10:11:40;13.20;99.90
10051;DHT22;5065;46.942;7.432;2022-09-29T10:14:11;13.20;99.90
10051;DHT22;5065;46.942;7.432;2022-09-29T10:16:43;13.30;99.90
10051;DHT22;5065;46.942;7.432;2022-09-29T10:19:11;13.20;99.90
10051;DHT22;5065;46.942;7.432;2022-09-29T10:21:41;13.30;99.90
10051;DHT22;5065;46.942;7.432;2022-09-29T10:24:27;13.40;99.90
10051;DHT22;5065;46.942;7.432;2022-09-29T10:26:57;13.50;99.90
10051;DHT22;5065;46.942;7.432;2022-09-29T10:29:30;13.60;99.90
10051;DHT22;5065;46.942;7.432;2022-09-29T10:32:04;13.70;99.90
10051;DHT22;5065;46.942;7.432;2022-09-29T10:34:34;13.80;99.90
10051;DHT22;5065;46.942;7.432;2022-09-29T10:37:16;13.80;99.90
10051;DHT22;5065;46.942;7.432;2022-09-29T10:39:46;13.80;99.90
10051;DHT22;5065;46.942;7.432;2022-09-29T10:42:21;13.90;99.90
10051;DHT22;5065;46.942;7.432;2022-09-29T10:44:51;13.90;99.90
10051;DHT22;5065;46.942;7.432;2022-09-29T10:47:20;13.90;99.90
10051;DHT22;5065;46.942;7.432;2022-09-29T10:49:47;13.90;99.90
10051;DHT22;5065;46.942;7.432;2022-09-29T10:52:22;14.00;99.90
10051;DHT22;5065;46.942;7.432;2022-09-29T10:54:56;13.90;99.90
10051;DHT22;5065;46.942;7.432;2022-09-29T10:57:25;14.00;99.90
10051;DHT22;5065;46.942;7.432;2022-09-29T10:59:54;14.10;99.90
10051;DHT22;5065;46.942;7.432;2022-09-29T11:02:27;14.00;99.90
10051;DHT22;5065;46.942;7.432;2022-09-29T11:04:57;13.90;99.90
10051;DHT22;5065;46.942;7.432;2022-09-29T11:07:27;13.80;99.90
10051;DHT22;5065;46.942;7.432;2022-09-29T11:09:54;13.80;99.90
10051;DHT22;5065;46.942;7.432;2022-09-29T11:12:27;13.70;99.90
10051;DHT22;5065;46.942;7.432;2022-09-29T11:14:57;13.70;99.90
10051;DHT22;5065;46.942;7.432;2022-09-29T11:17:27;13.60;99.90
10051;DHT22;5065;46.942;7.432;2022-09-29T11:19:56;13.80;99.90
10051;DHT22;5065;46.942;7.432;2022-09-29T11:25:45;13.80;99.90
10051;DHT22;5065;46.942;7.432;2022-09-29T11:28:30;13.90;99.90
10051;DHT22;5065;46.942;7.432;2022-09-29T11:31:13;14.00;99.90
10051;DHT22;5065;46.942;7.432;2022-09-29T11:33:50;14.10;99.90
10051;DHT22;5065;46.942;7.432;2022-09-29T11:36:26;14.20;99.90
10051;DHT22;5065;46.942;7.432;2022-09-29T11:39:09;14.10;99.90
10051;DHT22;5065;46.942;7.432;2022-09-29T11:41:49;14.20;99.90
10051;DHT22;5065;46.942;7.432;2022-09-29T11:44:48;14.20;99.90
10051;DHT22;5065;46.942;7.432;2022-09-29T11:47:47;14.20;99.90
10051;DHT22;5065;46.942;7.432;2022-09-29T11:50:30;14.20;99.90
10051;DHT22;5065;46.942;7.432;2022-09-29T11:56:03;14.20;99.90
10051;DHT22;5065;46.942;7.432;2022-09-29T11:58:45;14.20;99.90
10051;DHT22;5065;46.942;7.432;2022-09-29T12:01:32;14.10;99.90
10051;DHT22;5065;46.942;7.432;2022-09-29T12:04:15;14.20;99.90
10051;DHT22;5065;46.942;7.432;2022-09-29T12:06:52;14.20;99.90
10051;DHT22;5065;46.942;7.432;2022-09-29T12:09:30;14.20;99.90
10051;DHT22;5065;46.942;7.432;2022-09-29T12:12:07;14.30;99.90
10051;DHT22;5065;46.942;7.432;2022-09-29T12:14:46;14.30;99.90
10051;DHT22;5065;46.942;7.432;2022-09-29T12:17:19;14.30;99.90
10051;DHT22;5065;46.942;7.432;2022-09-29T12:19:52;14.30;99.90
10051;DHT22;5065;46.942;7.432;2022-09-29T12:22:19;14.40;99.90
10051;DHT22;5065;46.942;7.432;2022-09-29T12:24:49;14.40;99.90
10051;DHT22;5065;46.942;7.432;2022-09-29T12:27:21;14.40;99.90
10051;DHT22;5065;46.942;7.432;2022-09-29T12:29:54;14.40;99.90
10051;DHT22;5065;46.942;7.432;2022-09-29T12:32:26;14.40;99.90
10051;DHT22;5065;46.942;7.432;2022-09-29T12:34:57;14.40;99.90
10051;DHT22;5065;46.942;7.432;2022-09-29T12:37:30;14.40;99.90
10051;DHT22;5065;46.942;7.432;2022-09-29T12:40:04;14.40;99.90
10051;DHT22;5065;46.942;7.432;2022-09-29T12:42:47;14.40;99.90
10051;DHT22;5065;46.942;7.432;2022-09-29T12:45:27;14.40;99.90
10051;DHT22;5065;46.942;7.432;2022-09-29T12:48:05;14.40;99.90
10051;DHT22;5065;46.942;7.432;2022-09-29T12:50:38;14.40;99.90
10051;DHT22;5065;46.942;7.432;2022-09-29T12:53:11;14.40;99.90
10051;DHT22;5065;46.942;7.432;2022-09-29T12:55:45;14.40;99.90
10051;DHT22;5065;46.942;7.432;2022-09-29T12:58:21;14.40;99.90
10051;DHT22;5065;46.942;7.432;2022-09-29T13:00:53;14.40;99.90
10051;DHT22;5065;46.942;7.432;2022-09-29T13:06:47;14.30;99.90
10051;DHT22;5065;46.942;7.432;2022-09-29T13:12:34;14.30;99.90
10051;DHT22;5065;46.942;7.432;2022-09-29T13:15:23;14.20;99.90
10051;DHT22;5065;46.942;7.432;2022-09-29T13:18:04;14.20;99.90
10051;DHT22;5065;46.942;7.432;2022-09-29T13:20:41;14.20;99.90
10051;DHT22;5065;46.942;7.432;2022-09-29T13:23:28;14.20;99.90
10051;DHT22;5065;46.942;7.432;2022-09-29T13:26:11;14.20;99.90
10051;DHT22;5065;46.942;7.432;2022-09-29T13:28:45;14.20;99.90
10051;DHT22;5065;46.942;7.432;2022-09-29T13:31:18;14.30;99.90
10051;DHT22;5065;46.942;7.432;2022-09-29T13:33:48;14.20;99.90
10051;DHT22;5065;46.942;7.432;2022-09-29T13:36:25;14.30;99.90
10051;DHT22;5065;46.942;7.432;2022-09-29T13:38:55;14.30;99.90
10051;DHT22;5065;46.942;7.432;2022-09-29T13:41:41;14.30;99.90
10051;DHT22;5065;46.942;7.432;2022-09-29T13:44:22;14.20;99.90
10051;DHT22;5065;46.942;7.432;2022-09-29T13:46:52;14.30;99.90
10051;DHT22;5065;46.942;7.432;2022-09-29T13:49:29;14.30;99.90
10051;DHT22;5065;46.942;7.432;2022-09-29T13:51:58;14.30;99.90
10051;DHT22;5065;46.942;7.432;2022-09-29T13:54:33;14.20;99.90
10051;DHT22;5065;46.942;7.432;2022-09-29T14:00:18;14.20;99.90
10051;DHT22;5065;46.942;7.432;2022-09-29T14:03:03;14.20;99.90
10051;DHT22;5065;46.942;7.432;2022-09-29T14:05:55;14.20;99.90
10051;DHT22;5065;46.942;7.432;2022-09-29T14:08:34;14.20;99.90
10051;DHT22;5065;46.942;7.432;2022-09-29T14:11:25;14.20;99.90
10051;DHT22;5065;46.942;7.432;2022-09-29T14:13:56;14.20;99.90
10051;DHT22;5065;46.942;7.432;2022-09-29T14:16:47;14.30;99.90
10051;DHT22;5065;46.942;7.432;2022-09-29T14:19:40;14.30;99.90
10051;DHT22;5065;46.942;7.432;2022-09-29T14:25:28;14.40;99.90
10051;DHT22;5065;46.942;7.432;2022-09-29T14:28:02;14.40;99.90
10051;DHT22;5065;46.942;7.432;2022-09-29T14:30:42;14.40;99.90
10051;DHT22;5065;46.942;7.432;2022-09-29T14:33:13;14.30;99.90
10051;DHT22;5065;46.942;7.432;2022-09-29T14:36:00;14.30;99.90
10051;DHT22;5065;46.942;7.432;2022-09-29T14:38:30;14.20;99.90
10051;DHT22;5065;46.942;7.432;2022-09-29T14:41:00;14.30;99.90
10051;DHT22;5065;46.942;7.432;2022-09-29T14:43:36;14.20;99.90
10051;DHT22;5065;46.942;7.432;2022-09-29T14:49:39;14.20;99.90
10051;DHT22;5065;46.942;7.432;2022-09-29T14:52:35;14.20;99.90
10051;DHT22;5065;46.942;7.432;2022-09-29T14:55:13;14.20;99.90
10051;DHT22;5065;46.942;7.432;2022-09-29T14:58:03;14.20;99.90
10051;DHT22;5065;46.942;7.432;2022-09-29T15:00:50;14.10;99.90
10051;DHT22;5065;46.942;7.432;2022-09-29T15:03:26;14.20;99.90
10051;DHT22;5065;46.942;7.432;2022-09-29T15:06:08;14.10;99.90
10051;DHT22;5065;46.942;7.432;2022-09-29T15:08:38;14.10;99.90
10051;DHT22;5065;46.942;7.432;2022-09-29T15:11:27;14.10;99.90
10051;DHT22;5065;46.942;7.432;2022-09-29T15:13:54;14.10;99.90
10051;DHT22;5065;46.942;7.432;2022-09-29T15:16:29;14.10;99.90
10051;DHT22;5065;46.942;7.432;2022-09-29T15:19:10;14.10;99.90
10051;DHT22;5065;46.942;7.432;2022-09-29T15:21:45;14.00;99.90
10051;DHT22;5065;46.942;7.432;2022-09-29T15:24:42;14.00;99.90
10051;DHT22;5065;46.942;7.432;2022-09-29T15:27:15;13.90;99.90
10051;DHT22;5065;46.942;7.432;2022-09-29T15:29:45;13.90;99.90
10051;DHT22;5065;46.942;7.432;2022-09-29T15:32:21;13.90;99.90
10051;DHT22;5065;46.942;7.432;2022-09-29T15:34:50;13.90;99.90
10051;DHT22;5065;46.942;7.432;2022-09-29T15:37:18;13.80;99.90
10051;DHT22;5065;46.942;7.432;2022-09-29T15:39:49;13.80;99.90
10051;DHT22;5065;46.942;7.432;2022-09-29T15:42:19;13.80;99.90
10051;DHT22;5065;46.942;7.432;2022-09-29T15:44:55;13.80;99.90
10051;DHT22;5065;46.942;7.432;2022-09-29T15:47:36;13.70;99.90
10051;DHT22;5065;46.942;7.432;2022-09-29T15:50:04;13.70;99.90
10051;DHT22;5065;46.942;7.432;2022-09-29T15:52:42;13.70;99.90
10051;DHT22;5065;46.942;7.432;2022-09-29T15:55:13;13.70;99.90
10051;DHT22;5065;46.942;7.432;2022-09-29T15:57:43;13.70;99.90
10051;DHT22;5065;46.942;7.432;2022-09-29T16:03:25;13.70;99.90
10051;DHT22;5065;46.942;7.432;2022-09-29T16:06:11;13.60;99.90
10051;DHT22;5065;46.942;7.432;2022-09-29T16:08:42;13.60;99.90
10051;DHT22;5065;46.942;7.432;2022-09-29T16:11:19;13.60;99.90
10051;DHT22;5065;46.942;7.432;2022-09-29T16:13:50;13.50;99.90
10051;DHT22;5065;46.942;7.432;2022-09-29T16:16:26;13.60;99.90
10051;DHT22;5065;46.942;7.432;2022-09-29T16:18:58;13.50;99.90
10051;DHT22;5065;46.942;7.432;2022-09-29T16:21:32;13.60;99.90
10051;DHT22;5065;46.942;7.432;2022-09-29T16:24:06;13.50;99.90
10051;DHT22;5065;46.942;7.432;2022-09-29T16:26:37;13.50;99.90
10051;DHT22;5065;46.942;7.432;2022-09-29T16:29:21;13.50;99.90
10051;DHT22;5065;46.942;7.432;2022-09-29T16:31:50;13.50;99.90
10051;DHT22;5065;46.942;7.432;2022-09-29T16:34:24;13.50;99.90
10051;DHT22;5065;46.942;7.432;2022-09-29T16:36:53;13.40;99.90
10051;DHT22;5065;46.942;7.432;2022-09-29T16:39:22;13.40;99.90
10051;DHT22;5065;46.942;7.432;2022-09-29T16:41:52;13.40;99.90
10051;DHT22;5065;46.942;7.432;2022-09-29T16:44:25;13.40;99.90
10051;DHT22;5065;46.942;7.432;2022-09-29T16:46:56;13.40;99.90
10051;DHT22;5065;46.942;7.432;2022-09-29T16:49:27;13.40;99.90